Time;durP1;ratioP1;P1;durP2;ratioP2;P2;SDS_P1;SDS_P2;PMS_P1;PMS_P2;Temp;Humidity;BMP_temperature;BMP_pressure;BME280_temperature;BME280_humidity;BME280_pressure;Samples;Min_cycle;Max_cycle;Signal;HPM_P1;HPM_P2
2022/12/02 00:01:31;;;;;;;;;;;;;;;;;;5078802;28;19938;-70
2022/12/02 00:03:56;;;;;;;;;;;;;;;;;;5082381;28;20245;-74
2022/12/02 00:06:27;;;;;;;;;;;;;;;;;;5082701;28;19920;-78
2022/12/02 00:08:53;;;;;;;;;;;;;;;;;;5080976;28;19924;-70
2022/12/02 00:11:28;;;;;;;;;;;;;;;;;;5082192;28;20291;-72
2022/12/02 00:13:58;;;;;;;;;;;;;;;;;;5083301;28;19924;-70
2022/12/02 00:16:24;;;;;;;;;;;;;;;;;;5081990;28;20011;-69
2022/12/02 00:18:50;;;;;;;;;;;;;;;;;;5078164;28;20396;-70
2022/12/02 00:21:16;;;;;;;;;;;;;;;;;;5085258;28;20015;-70
2022/12/02 00:23:41;;;;;;;;;;;;;;;;;;5082443;28;20455;-71
2022/12/02 00:26:06;;;;;;;;;;;;;;;;;;5080515;28;20015;-70
2022/12/02 00:28:32;;;;;;;;;;;;;;;;;;5084408;28;20238;-71
2022/12/02 00:30:57;;;;;;;;;;;;;;;;;;5082662;28;20367;-71
2022/12/02 00:33:22;;;;;;;;;;;;;;;;;;5077834;28;19924;-72
2022/12/02 00:35:48;;;;;;;;;;;;;;;;;;5076496;28;19924;-70
2022/12/02 00:38:13;;;;;;;;;;;;;;;;;;5081836;28;19971;-70
2022/12/02 00:40:38;;;;;;;;;;;;;;;;;;5072946;28;19952;-73
2022/12/02 00:48:31;;;;;;;;;;;;;;;;;;5066396;28;19927;-72
2022/12/02 00:50:57;;;;;;;;;;;;;;;;;;5065479;28;19924;-74
2022/12/02 00:53:22;;;;;;;;;;;;;;;;;;5068493;28;20398;-68
2022/12/02 00:55:47;;;;;;;;;;;;;;;;;;5069608;28;19924;-72
2022/12/02 00:58:13;;;;;;;;;;;;;;;;;;5069581;28;20383;-69
2022/12/02 01:00:38;;;;;;;;;;;;;;;;;;5085052;28;19926;-71
2022/12/02 01:03:03;;;;;;;;;;;;;;;;;;5081771;28;20384;-71
2022/12/02 01:05:28;;;;;;;;;;;;;;;;;;5079765;28;19936;-70
2022/12/02 01:07:54;;;;;;;;;;;;;;;;;;5078968;28;20388;-71
2022/12/02 01:10:19;;;;;;;;;;;;;;;;;;5083435;28;19947;-70
2022/12/02 01:12:44;;;;;;;;;;;;;;;;;;5100882;28;19928;-70
2022/12/02 01:15:10;;;;;;;;;;;;;;;;;;5088586;28;20335;-71
2022/12/02 01:17:35;;;;;;;;;;;;;;;;;;5083127;28;19924;-71
2022/12/02 01:20:00;;;;;;;;;;;;;;;;;;5077429;28;20402;-76
2022/12/02 01:22:25;;;;;;;;;;;;;;;;;;5080561;28;19943;-70
2022/12/02 01:24:51;;;;;;;;;;;;;;;;;;5085935;28;19924;-72
2022/12/02 01:27:16;;;;;;;;;;;;;;;;;;5086690;28;19928;-72
2022/12/02 01:29:42;;;;;;;;;;;;;;;;;;5086358;28;19928;-70
2022/12/02 01:32:07;;;;;;;;;;;;;;;;;;5085197;28;20284;-70
2022/12/02 01:34:32;;;;;;;;;;;;;;;;;;5087968;28;20368;-73
2022/12/02 01:36:57;;;;;;;;;;;;;;;;;;5085136;28;19920;-68
2022/12/02 01:39:23;;;;;;;;;;;;;;;;;;5083680;28;19930;-73
2022/12/02 01:41:48;;;;;;;;;;;;;;;;;;5083056;28;20315;-70
2022/12/02 01:44:13;;;;;;;;;;;;;;;;;;5084087;28;19936;-70
2022/12/02 01:46:39;;;;;;;;;;;;;;;;;;5090846;28;19920;-70
2022/12/02 01:49:05;;;;;;;;;;;;;;;;;;5080007;28;19928;-70
2022/12/02 01:51:30;;;;;;;;;;;;;;;;;;5089614;28;19924;-70
2022/12/02 01:53:56;;;;;;;;;;;;;;;;;;5082500;28;19928;-70
2022/12/02 01:56:21;;;;;;;;;;;;;;;;;;5085219;28;20295;-69
2022/12/02 01:58:46;;;;;;;;;;;;;;;;;;5080524;28;19932;-72
2022/12/02 02:01:26;;;;;;;;;;;;;;;;;;5083378;28;20414;-74
2022/12/02 02:03:51;;;;;;;;;;;;;;;;;;5078852;28;20240;-74
2022/12/02 02:06:16;;;;;;;;;;;;;;;;;;5087602;28;19924;-74
2022/12/02 02:08:42;;;;;;;;;;;;;;;;;;5087328;28;20283;-74
2022/12/02 02:11:07;;;;;;;;;;;;;;;;;;5083475;28;19932;-77
2022/12/02 02:13:32;;;;;;;;;;;;;;;;;;5081127;28;19929;-72
2022/12/02 02:15:57;;;;;;;;;;;;;;;;;;5082275;28;20368;-74
2022/12/02 02:18:23;;;;;;;;;;;;;;;;;;5086321;28;20074;-74
2022/12/02 02:20:48;;;;;;;;;;;;;;;;;;5089467;28;19924;-76
2022/12/02 02:23:20;;;;;;;;;;;;;;;;;;5081495;28;19938;-73
2022/12/02 02:25:48;;;;;;;;;;;;;;;;;;5083382;28;20014;-73
2022/12/02 02:28:13;;;;;;;;;;;;;;;;;;5082309;28;19927;-74
2022/12/02 02:30:39;;;;;;;;;;;;;;;;;;5089295;28;19924;-72
2022/12/02 02:33:06;;;;;;;;;;;;;;;;;;5079170;28;19977;-73
2022/12/02 02:35:33;;;;;;;;;;;;;;;;;;5080256;28;19924;-73
2022/12/02 02:37:58;;;;;;;;;;;;;;;;;;5081612;28;19931;-74
2022/12/02 02:40:25;;;;;;;;;;;;;;;;;;5084017;28;19924;-75
2022/12/02 02:42:52;;;;;;;;;;;;;;;;;;5081944;28;20404;-74
2022/12/02 02:45:22;;;;;;;;;;;;;;;;;;5087909;28;19935;-72
2022/12/02 02:47:47;;;;;;;;;;;;;;;;;;5083512;28;19933;-71
2022/12/02 02:50:13;;;;;;;;;;;;;;;;;;5087726;28;19986;-76
2022/12/02 02:52:39;;;;;;;;;;;;;;;;;;5083964;28;19929;-76
2022/12/02 02:55:05;;;;;;;;;;;;;;;;;;5088188;28;19979;-79
2022/12/02 02:57:31;;;;;;;;;;;;;;;;;;5083767;28;19924;-76
2022/12/02 02:59:56;;;;;;;;;;;;;;;;;;5077753;28;20629;-76
2022/12/02 03:02:22;;;;;;;;;;;;;;;;;;5078551;28;20426;-74
2022/12/02 03:04:48;;;;;;;;;;;;;;;;;;5079660;28;19970;-73
2022/12/02 03:07:13;;;;;;;;;;;;;;;;;;5082861;28;20334;-73
2022/12/02 03:09:39;;;;;;;;;;;;;;;;;;5081701;28;19920;-72
2022/12/02 03:12:04;;;;;;;;;;;;;;;;;;5078361;28;19932;-73
2022/12/02 03:14:30;;;;;;;;;;;;;;;;;;5082840;28;19982;-73
2022/12/02 03:16:55;;;;;;;;;;;;;;;;;;5079698;28;20291;-73
2022/12/02 03:19:21;;;;;;;;;;;;;;;;;;5083987;28;20337;-74
2022/12/02 03:21:46;;;;;;;;;;;;;;;;;;5081464;28;19940;-73
2022/12/02 03:24:12;;;;;;;;;;;;;;;;;;5083162;28;20299;-74
2022/12/02 03:26:37;;;;;;;;;;;;;;;;;;5083539;28;19932;-74
2022/12/02 03:29:03;;;;;;;;;;;;;;;;;;5081030;28;20011;-74
2022/12/02 03:31:29;;;;;;;;;;;;;;;;;;5078966;28;19969;-77
2022/12/02 03:33:55;;;;;;;;;;;;;;;;;;5081280;28;19928;-72
2022/12/02 03:36:21;;;;;;;;;;;;;;;;;;5080268;28;20018;-76
2022/12/02 03:38:46;;;;;;;;;;;;;;;;;;5084506;28;20015;-72
2022/12/02 03:41:12;;;;;;;;;;;;;;;;;;5076250;28;19932;-72
2022/12/02 03:43:37;;;;;;;;;;;;;;;;;;5082932;28;19928;-73
2022/12/02 03:46:03;;;;;;;;;;;;;;;;;;5081825;28;19978;-73
2022/12/02 03:48:29;;;;;;;;;;;;;;;;;;5080302;28;20261;-74
2022/12/02 03:50:55;;;;;;;;;;;;;;;;;;5078101;28;19932;-72
2022/12/02 03:53:20;;;;;;;;;;;;;;;;;;5080614;28;20349;-72
2022/12/02 03:55:46;;;;;;;;;;;;;;;;;;5080920;28;20427;-74
2022/12/02 03:58:11;;;;;;;;;;;;;;;;;;5079581;28;20284;-78
2022/12/02 04:00:37;;;;;;;;;;;;;;;;;;5084068;28;19928;-72
2022/12/02 04:03:02;;;;;;;;;;;;;;;;;;5080137;28;19962;-73
2022/12/02 04:05:28;;;;;;;;;;;;;;;;;;5080824;28;19975;-73
2022/12/02 04:07:53;;;;;;;;;;;;;;;;;;5085141;28;19928;-73
2022/12/02 04:10:18;;;;;;;;;;;;;;;;;;5082603;28;19932;-73
2022/12/02 04:12:44;;;;;;;;;;;;;;;;;;5082920;28;19924;-77
2022/12/02 04:15:09;;;;;;;;;;;;;;;;;;5084938;28;20295;-74
2022/12/02 04:17:35;;;;;;;;;;;;;;;;;;5082367;28;19924;-73
2022/12/02 04:20:00;;;;;;;;;;;;;;;;;;5085301;28;19931;-73
2022/12/02 04:22:25;;;;;;;;;;;;;;;;;;5079797;28;19932;-75
2022/12/02 04:24:51;;;;;;;;;;;;;;;;;;5077468;28;20422;-72
2022/12/02 04:27:16;;;;;;;;;;;;;;;;;;5084672;28;20291;-74
2022/12/02 04:29:41;;;;;;;;;;;;;;;;;;5089900;28;20019;-72
2022/12/02 04:32:07;;;;;;;;;;;;;;;;;;5083809;28;19939;-74
2022/12/02 04:34:32;;;;;;;;;;;;;;;;;;5084228;28;20333;-72
2022/12/02 04:36:57;;;;;;;;;;;;;;;;;;5089860;28;20043;-72
2022/12/02 04:39:22;;;;;;;;;;;;;;;;;;5086876;28;19923;-73
2022/12/02 04:41:48;;;;;;;;;;;;;;;;;;5084482;28;19935;-73
2022/12/02 04:44:13;;;;;;;;;;;;;;;;;;5083292;28;20241;-73
2022/12/02 04:46:38;;;;;;;;;;;;;;;;;;5086282;28;19920;-79
2022/12/02 04:49:03;;;;;;;;;;;;;;;;;;5078694;28;19977;-72
2022/12/02 04:51:29;;;;;;;;;;;;;;;;;;5078232;28;20371;-73
2022/12/02 04:53:54;;;;;;;;;;;;;;;;;;5088969;28;20008;-73
2022/12/02 04:56:19;;;;;;;;;;;;;;;;;;5085273;28;19935;-73
2022/12/02 04:58:45;;;;;;;;;;;;;;;;;;5085028;28;19932;-74
2022/12/02 05:01:10;;;;;;;;;;;;;;;;;;5086911;28;19928;-76
2022/12/02 05:03:35;;;;;;;;;;;;;;;;;;5088945;28;19930;-76
2022/12/02 05:06:00;;;;;;;;;;;;;;;;;;5085174;28;19981;-73
2022/12/02 05:08:26;;;;;;;;;;;;;;;;;;5090353;28;19954;-77
2022/12/02 05:10:51;;;;;;;;;;;;;;;;;;5089167;28;19928;-72
2022/12/02 05:13:16;;;;;;;;;;;;;;;;;;5084569;28;20295;-74
2022/12/02 05:15:42;;;;;;;;;;;;;;;;;;5086138;28;19928;-73
2022/12/02 05:18:07;;;;;;;;;;;;;;;;;;5085389;28;20395;-73
2022/12/02 05:20:33;;;;;;;;;;;;;;;;;;5085509;28;20001;-73
2022/12/02 05:22:59;;;;;;;;;;;;;;;;;;5081421;28;19928;-75
2022/12/02 05:25:24;;;;;;;;;;;;;;;;;;5085996;28;19974;-73
2022/12/02 05:27:49;;;;;;;;;;;;;;;;;;5088529;28;20014;-73
2022/12/02 05:30:15;;;;;;;;;;;;;;;;;;5089861;28;19962;-74
2022/12/02 05:32:40;;;;;;;;;;;;;;;;;;5084537;28;19947;-72
2022/12/02 05:35:05;;;;;;;;;;;;;;;;;;5084571;28;19940;-75
2022/12/02 05:37:31;;;;;;;;;;;;;;;;;;5082061;28;19979;-73
2022/12/02 05:39:57;;;;;;;;;;;;;;;;;;5082855;28;20528;-73
2022/12/02 05:42:22;;;;;;;;;;;;;;;;;;5080699;28;19924;-77
2022/12/02 05:44:48;;;;;;;;;;;;;;;;;;5088793;28;20650;-73
2022/12/02 05:47:14;;;;;;;;;;;;;;;;;;5082237;28;19935;-74
2022/12/02 05:49:40;;;;;;;;;;;;;;;;;;5084715;28;20015;-73
2022/12/02 05:52:17;;;;;;;;;;;;;;;;;;5079866;28;19924;-72
2022/12/02 05:54:43;;;;;;;;;;;;;;;;;;5088649;28;20380;-73
2022/12/02 05:57:10;;;;;;;;;;;;;;;;;;5079817;28;19936;-73
2022/12/02 05:59:35;;;;;;;;;;;;;;;;;;5077176;28;19924;-73
2022/12/02 06:02:00;;;;;;;;;;;;;;;;;;5084949;28;19928;-73
2022/12/02 06:04:35;;;;;;;;;;;;;;;;;;5084170;28;20366;-74
2022/12/02 06:07:07;;;;;;;;;;;;;;;;;;5083348;28;19963;-75
2022/12/02 06:09:32;;;;;;;;;;;;;;;;;;5082128;28;19920;-72
2022/12/02 06:11:59;;;;;;;;;;;;;;;;;;5097940;28;19932;-75
2022/12/02 06:14:25;;;;;;;;;;;;;;;;;;5078844;28;19936;-74
2022/12/02 06:16:58;;;;;;;;;;;;;;;;;;5082669;28;20378;-74
2022/12/02 06:19:25;;;;;;;;;;;;;;;;;;5079249;28;20289;-73
2022/12/02 06:21:51;;;;;;;;;;;;;;;;;;5087215;28;19963;-72
2022/12/02 06:24:19;;;;;;;;;;;;;;;;;;5085340;28;20736;-73
2022/12/02 06:26:44;;;;;;;;;;;;;;;;;;5081600;28;19928;-73
2022/12/02 06:29:14;;;;;;;;;;;;;;;;;;5082400;28;19969;-73
2022/12/02 06:31:41;;;;;;;;;;;;;;;;;;5081389;28;19928;-74
2022/12/02 06:34:25;;;;;;;;;;;;;;;;;;5080655;28;19932;-72
2022/12/02 06:36:50;;;;;;;;;;;;;;;;;;5081745;28;19924;-73
2022/12/02 06:39:20;;;;;;;;;;;;;;;;;;5082110;28;19923;-73
2022/12/02 06:41:45;;;;;;;;;;;;;;;;;;5080431;28;20348;-74
2022/12/02 06:47:24;;;;;;;;;;;;;;;;;;5079281;28;19934;-74
2022/12/02 06:49:49;;;;;;;;;;;;;;;;;;5080527;28;19935;-73
2022/12/02 06:52:19;;;;;;;;;;;;;;;;;;5081001;28;19923;-75
2022/12/02 06:54:45;;;;;;;;;;;;;;;;;;5082741;28;19973;-74
2022/12/02 06:57:11;;;;;;;;;;;;;;;;;;5078898;28;19923;-73
2022/12/02 06:59:36;;;;;;;;;;;;;;;;;;5075000;28;20009;-72
2022/12/02 07:02:10;;;;;;;;;;;;;;;;;;5079915;28;19940;-73
2022/12/02 07:04:46;;;;;;;;;;;;;;;;;;5083334;28;19982;-78
2022/12/02 07:07:28;;;;;;;;;;;;;;;;;;5080351;28;19924;-75
2022/12/02 07:10:01;;;;;;;;;;;;;;;;;;5082519;28;19964;-74
2022/12/02 07:12:31;;;;;;;;;;;;;;;;;;5082511;28;19955;-79
2022/12/02 07:14:57;;;;;;;;;;;;;;;;;;5076813;28;19934;-72
2022/12/02 07:17:22;;;;;;;;;;;;;;;;;;5080223;28;19939;-74
2022/12/02 07:20:12;;;;;;;;;;;;;;;;;;5076668;28;19925;-76
2022/12/02 07:22:47;;;;;;;;;;;;;;;;;;5083629;28;19939;-74
2022/12/02 07:25:13;;;;;;;;;;;;;;;;;;5085109;28;19963;-72
2022/12/02 07:27:39;;;;;;;;;;;;;;;;;;5083222;28;20021;-74
2022/12/02 07:30:16;;;;;;;;;;;;;;;;;;5081242;28;19970;-75
2022/12/02 07:32:42;;;;;;;;;;;;;;;;;;5083759;28;20296;-75
2022/12/02 07:35:07;;;;;;;;;;;;;;;;;;5078639;28;19961;-73
2022/12/02 07:37:32;;;;;;;;;;;;;;;;;;5076550;28;20349;-74
2022/12/02 07:39:57;;;;;;;;;;;;;;;;;;5081005;28;19924;-73
2022/12/02 07:42:23;;;;;;;;;;;;;;;;;;5084818;28;19920;-73
2022/12/02 07:44:48;;;;;;;;;;;;;;;;;;5075242;28;19932;-73
2022/12/02 07:47:13;;;;;;;;;;;;;;;;;;5076708;28;19928;-74
2022/12/02 07:49:39;;;;;;;;;;;;;;;;;;5077768;28;19965;-73
2022/12/02 07:52:04;;;;;;;;;;;;;;;;;;5076330;28;20303;-76
2022/12/02 07:54:29;;;;;;;;;;;;;;;;;;5078778;28;19935;-78
2022/12/02 07:56:54;;;;;;;;;;;;;;;;;;5077062;28;20043;-75
2022/12/02 07:59:20;;;;;;;;;;;;;;;;;;5080781;28;19939;-71
2022/12/02 08:01:45;;;;;;;;;;;;;;;;;;5088071;28;20387;-74
2022/12/02 08:04:10;;;;;;;;;;;;;;;;;;5084746;28;19924;-73
2022/12/02 08:06:36;;;;;;;;;;;;;;;;;;5084369;28;20019;-74
2022/12/02 08:09:01;;;;;;;;;;;;;;;;;;5088816;28;20342;-74
2022/12/02 08:11:26;;;;;;;;;;;;;;;;;;5084444;28;19943;-73
2022/12/02 08:13:51;;;;;;;;;;;;;;;;;;5084966;28;20007;-73
2022/12/02 08:16:17;;;;;;;;;;;;;;;;;;5083814;28;19928;-72
2022/12/02 08:18:42;;;;;;;;;;;;;;;;;;5081894;28;20356;-72
2022/12/02 08:21:07;;;;;;;;;;;;;;;;;;5088863;28;19996;-75
2022/12/02 08:23:33;;;;;;;;;;;;;;;;;;5087297;28;20292;-74
2022/12/02 08:25:58;;;;;;;;;;;;;;;;;;5076699;28;19928;-74
2022/12/02 08:28:23;;;;;;;;;;;;;;;;;;5081805;28;19925;-74
2022/12/02 08:30:49;;;;;;;;;;;;;;;;;;5085155;28;19931;-75
2022/12/02 08:33:14;;;;;;;;;;;;;;;;;;5083036;28;20391;-77
2022/12/02 08:35:40;;;;;;;;;;;;;;;;;;5090827;28;20022;-74
2022/12/02 08:38:06;;;;;;;;;;;;;;;;;;5083857;28;20353;-74
2022/12/02 08:40:33;;;;;;;;;;;;;;;;;;5083923;28;19924;-72
2022/12/02 08:42:58;;;;;;;;;;;;;;;;;;5083468;28;20024;-72
2022/12/02 08:45:24;;;;;;;;;;;;;;;;;;5083797;28;20439;-72
2022/12/02 08:47:49;;;;;;;;;;;;;;;;;;5082053;28;19946;-73
2022/12/02 08:50:14;;;;;;;;;;;;;;;;;;5087725;28;20379;-75
2022/12/02 08:52:40;;;;;;;;;;;;;;;;;;5083373;28;19924;-73
2022/12/02 08:55:05;;;;;;;;;;;;;;;;;;5079147;28;19936;-73
2022/12/02 08:57:30;;;;;;;;;;;;;;;;;;5085972;28;19956;-73
2022/12/02 08:59:56;;;;;;;;;;;;;;;;;;5087529;28;19928;-72
2022/12/02 09:02:21;;;;;;;;;;;;;;;;;;5084435;28;19966;-73
2022/12/02 09:04:46;;;;;;;;;;;;;;;;;;5084537;28;19928;-74
2022/12/02 09:07:11;;;;;;;;;;;;;;;;;;5082691;28;19928;-71
2022/12/02 09:09:37;;;;;;;;;;;;;;;;;;5084826;28;20303;-75
2022/12/02 09:12:02;;;;;;;;;;;;;;;;;;5084100;28;20035;-74
2022/12/02 09:14:28;;;;;;;;;;;;;;;;;;5081456;28;20479;-76
2022/12/02 09:16:54;;;;;;;;;;;;;;;;;;5083141;28;19933;-73
2022/12/02 09:19:19;;;;;;;;;;;;;;;;;;5081680;28;19933;-74
2022/12/02 09:21:44;;;;;;;;;;;;;;;;;;5084535;28;20019;-73
2022/12/02 09:24:09;;;;;;;;;;;;;;;;;;5087528;28;19927;-73
2022/12/02 09:26:35;;;;;;;;;;;;;;;;;;5083842;28;19985;-77
2022/12/02 09:29:00;;;;;;;;;;;;;;;;;;5081667;28;20482;-73
2022/12/02 09:31:25;;;;;;;;;;;;;;;;;;5083153;28;19928;-73
2022/12/02 09:33:50;;;;;;;;;;;;;;;;;;5086004;28;20296;-73
2022/12/02 09:36:16;;;;;;;;;;;;;;;;;;5081573;28;20007;-72
2022/12/02 09:38:41;;;;;;;;;;;;;;;;;;5077105;28;19924;-74
2022/12/02 09:41:06;;;;;;;;;;;;;;;;;;5086306;28;19942;-74
2022/12/02 09:43:32;;;;;;;;;;;;;;;;;;5086653;28;19928;-72
2022/12/02 09:45:57;;;;;;;;;;;;;;;;;;5080756;28;20394;-73
2022/12/02 09:48:23;;;;;;;;;;;;;;;;;;5083049;28;19923;-72
2022/12/02 09:50:49;;;;;;;;;;;;;;;;;;5082173;28;19924;-73
2022/12/02 09:53:16;;;;;;;;;;;;;;;;;;5085916;28;19932;-75
2022/12/02 09:55:41;;;;;;;;;;;;;;;;;;5082434;28;19939;-73
2022/12/02 09:58:12;;;;;;;;;;;;;;;;;;5085749;28;20307;-77
2022/12/02 10:00:37;;;;;;;;;;;;;;;;;;5085258;28;19991;-72
2022/12/02 10:03:05;;;;;;;;;;;;;;;;;;5083211;28;19993;-72
2022/12/02 10:05:31;;;;;;;;;;;;;;;;;;5085361;28;19977;-73
2022/12/02 10:07:57;;;;;;;;;;;;;;;;;;5082859;28;19993;-73
2022/12/02 10:10:24;;;;;;;;;;;;;;;;;;5080672;28;19925;-75
2022/12/02 10:12:50;;;;;;;;;;;;;;;;;;5078163;28;20452;-73
2022/12/02 10:15:18;;;;;;;;;;;;;;;;;;5079528;28;19923;-73
2022/12/02 10:17:44;;;;;;;;;;;;;;;;;;5083903;28;19938;-74
2022/12/02 10:20:19;;;;;;;;;;;;;;;;;;5082194;28;19966;-73
2022/12/02 10:23:03;;;;;;;;;;;;;;;;;;5081804;28;20547;-73
2022/12/02 10:25:29;;;;;;;;;;;;;;;;;;5082766;28;19931;-74
2022/12/02 10:27:55;;;;;;;;;;;;;;;;;;5083358;28;19924;-74
2022/12/02 10:30:25;;;;;;;;;;;;;;;;;;5079708;28;20296;-75
2022/12/02 10:32:56;;;;;;;;;;;;;;;;;;5074944;28;19981;-73
2022/12/02 10:35:22;;;;;;;;;;;;;;;;;;5095953;28;19924;-73
2022/12/02 10:37:47;;;;;;;;;;;;;;;;;;5080228;28;20285;-73
2022/12/02 10:40:12;;;;;;;;;;;;;;;;;;5081065;28;20007;-75
2022/12/02 10:42:37;;;;;;;;;;;;;;;;;;5083363;28;19959;-74
2022/12/02 10:45:17;;;;;;;;;;;;;;;;;;5142159;22;20396;-56
2022/12/02 10:47:43;;;;;;;;;;;;;;;;;;5103497;28;19927;-58
2022/12/02 10:50:16;;;;;;;;;;;;;;;;;;5103340;28;20271;-59
2022/12/02 10:52:44;;;;;;;;;;;;;;;;;;5098997;28;19938;-59
2022/12/02 10:55:09;;;;;;;;;;;;;;;;;;5098149;28;20510;-60
2022/12/02 10:57:35;;;;;;;;;;;;;;;;;;5107612;28;19924;-59
2022/12/02 11:00:03;;;;;;;;;;;;;;;;;;5101248;28;19928;-60
2022/12/02 11:02:33;;;;;;;;;;;;;;;;;;5106176;28;19928;-59
2022/12/02 11:05:05;;;;;;;;;;;;;;;;;;5103595;28;19932;-57
2022/12/02 11:07:30;;;;;;;;;;;;;;;;;;5084870;28;19931;-60
2022/12/02 11:09:55;;;;;;;;;;;;;;;;;;5095651;28;19920;-60
2022/12/02 11:12:30;;;;;;;;;;;;;;;;;;5101636;28;20307;-66
2022/12/02 11:14:55;;;;;;;;;;;;;;;;;;5099557;28;20920;-58
2022/12/02 11:17:40;;;;;;;;;;;;;;;;;;5099965;28;19959;-60
2022/12/02 11:20:19;;;;;;;;;;;;;;;;;;5108474;28;20022;-59
2022/12/02 11:22:45;;;;;;;;;;;;;;;;;;5102201;28;19989;-58
2022/12/02 11:25:29;;;;;;;;;;;;;;;;;;5100752;28;19930;-58
2022/12/02 11:28:24;;;;;;;;;;;;;;;;;;5098573;28;19958;-59
2022/12/02 11:31:09;;;;;;;;;;;;;;;;;;5087393;28;19924;-60
2022/12/02 11:33:47;;;;;;;;;;;;;;;;;;5096315;28;19928;-61
2022/12/02 11:36:12;;;;;;;;;;;;;;;;;;5095184;28;19931;-59
2022/12/02 11:38:43;;;;;;;;;;;;;;;;;;5090579;28;19928;-60
2022/12/02 11:41:09;;;;;;;;;;;;;;;;;;5109500;28;19928;-61
2022/12/02 11:43:40;;;;;;;;;;;;;;;;;;5096180;28;20046;-62
2022/12/02 11:46:05;;;;;;;;;;;;;;;;;;5101233;28;19924;-62
2022/12/02 11:48:30;;;;;;;;;;;;;;;;;;5099775;28;19924;-60
2022/12/02 11:50:56;;;;;;;;;;;;;;;;;;5098730;28;19975;-60
2022/12/02 11:53:22;;;;;;;;;;;;;;;;;;5097386;28;19955;-60
2022/12/02 11:55:54;;;;;;;;;;;;;;;;;;5082814;28;19967;-60
2022/12/02 11:58:25;;;;;;;;;;;;;;;;;;5095925;28;19989;-60
2022/12/02 12:01:04;;;;;;;;;;;;;;;;;;5089372;28;19923;-60
2022/12/02 12:03:30;;;;;;;;;;;;;;;;;;5071097;28;19946;-58
2022/12/02 12:06:11;;;;;;;;;;;;;;;;;;5085668;28;19929;-60
2022/12/02 12:08:38;;;;;;;;;;;;;;;;;;5087519;28;19932;-60
2022/12/02 12:11:17;;;;;;;;;;;;;;;;;;5086130;28;19925;-60
2022/12/02 12:13:56;;;;;;;;;;;;;;;;;;5079756;28;19924;-59
2022/12/02 12:16:22;;;;;;;;;;;;;;;;;;5088399;28;19928;-60
2022/12/02 12:18:48;;;;;;;;;;;;;;;;;;5091949;28;19927;-59
2022/12/02 12:21:14;;;;;;;;;;;;;;;;;;5091219;28;19919;-60
2022/12/02 12:23:43;;;;;;;;;;;;;;;;;;5090146;28;19924;-60
2022/12/02 12:26:28;;;;;;;;;;;;;;;;;;5086894;28;19931;-59
2022/12/02 12:28:53;;;;;;;;;;;;;;;;;;5084821;28;20327;-58
2022/12/02 12:31:18;;;;;;;;;;;;;;;;;;5084412;28;19924;-61
2022/12/02 12:33:44;;;;;;;;;;;;;;;;;;5084063;28;19927;-59
2022/12/02 12:36:09;;;;;;;;;;;;;;;;;;5086789;28;19928;-59
2022/12/02 12:38:34;;;;;;;;;;;;;;;;;;5086739;28;19955;-57
2022/12/02 12:40:59;;;;;;;;;;;;;;;;;;5087280;28;19924;-59
2022/12/02 12:43:25;;;;;;;;;;;;;;;;;;5090049;28;20400;-59
2022/12/02 12:45:50;;;;;;;;;;;;;;;;;;5091094;28;19931;-62
2022/12/02 12:48:15;;;;;;;;;;;;;;;;;;5089608;28;20367;-59
2022/12/02 12:50:41;;;;;;;;;;;;;;;;;;5084074;28;19934;-60
2022/12/02 12:53:06;;;;;;;;;;;;;;;;;;5081467;28;19967;-59
2022/12/02 12:55:31;;;;;;;;;;;;;;;;;;5080654;28;19928;-59
2022/12/02 12:57:56;;;;;;;;;;;;;;;;;;5089665;28;20030;-57
2022/12/02 13:00:22;;;;;;;;;;;;;;;;;;5087774;28;19947;-59
2022/12/02 13:02:47;;;;;;;;;;;;;;;;;;5089595;28;21987;-59
2022/12/02 13:05:12;;;;;;;;;;;;;;;;;;5089449;28;19928;-60
2022/12/02 13:07:38;;;;;;;;;;;;;;;;;;5088917;28;19928;-60
2022/12/02 13:10:03;;;;;;;;;;;;;;;;;;5085352;28;19939;-58
2022/12/02 13:12:28;;;;;;;;;;;;;;;;;;5085406;28;19932;-60
2022/12/02 13:14:54;;;;;;;;;;;;;;;;;;5085908;28;19940;-58
2022/12/02 13:17:19;;;;;;;;;;;;;;;;;;5087026;28;19980;-60
2022/12/02 13:19:44;;;;;;;;;;;;;;;;;;5086384;28;19933;-58
2022/12/02 13:22:09;;;;;;;;;;;;;;;;;;5092174;28;20011;-59
2022/12/02 13:24:36;;;;;;;;;;;;;;;;;;5089828;28;19934;-60
2022/12/02 13:27:01;;;;;;;;;;;;;;;;;;5086494;28;19964;-59
2022/12/02 13:29:27;;;;;;;;;;;;;;;;;;5093118;28;20460;-58
2022/12/02 13:31:52;;;;;;;;;;;;;;;;;;5080217;28;19928;-60
2022/12/02 13:34:17;;;;;;;;;;;;;;;;;;5080459;28;19928;-57
2022/12/02 13:36:42;;;;;;;;;;;;;;;;;;5090427;28;19920;-58
2022/12/02 13:39:10;;;;;;;;;;;;;;;;;;5081403;28;19951;-59
2022/12/02 13:41:36;;;;;;;;;;;;;;;;;;5085449;28;20041;-57
2022/12/02 13:44:01;;;;;;;;;;;;;;;;;;5092528;28;19928;-59
2022/12/02 13:46:26;;;;;;;;;;;;;;;;;;5088122;28;19928;-59
2022/12/02 13:48:51;;;;;;;;;;;;;;;;;;5087833;28;19977;-57
2022/12/02 13:51:17;;;;;;;;;;;;;;;;;;5090648;28;19920;-59
2022/12/02 13:53:42;;;;;;;;;;;;;;;;;;5086658;28;19924;-58
2022/12/02 13:56:07;;;;;;;;;;;;;;;;;;5088770;28;19935;-59
2022/12/02 13:58:32;;;;;;;;;;;;;;;;;;5092414;28;20303;-58
2022/12/02 14:00:58;;;;;;;;;;;;;;;;;;5082745;28;19935;-60
2022/12/02 14:03:23;;;;;;;;;;;;;;;;;;5090132;28;19924;-59
2022/12/02 14:05:48;;;;;;;;;;;;;;;;;;5092317;28;20402;-59
2022/12/02 14:08:14;;;;;;;;;;;;;;;;;;5085202;28;19932;-60
2022/12/02 14:10:39;;;;;;;;;;;;;;;;;;5083427;28;20272;-61
2022/12/02 14:13:04;;;;;;;;;;;;;;;;;;5084597;28;19928;-58
2022/12/02 14:15:29;;;;;;;;;;;;;;;;;;5087099;28;20019;-60
2022/12/02 14:17:55;;;;;;;;;;;;;;;;;;5093936;28;19971;-57
2022/12/02 14:20:20;;;;;;;;;;;;;;;;;;5085778;28;20345;-60
2022/12/02 14:22:45;;;;;;;;;;;;;;;;;;5087116;28;19969;-59
2022/12/02 14:25:12;;;;;;;;;;;;;;;;;;5084465;28;19923;-60
2022/12/02 14:27:37;;;;;;;;;;;;;;;;;;5090114;28;19928;-60
2022/12/02 14:30:02;;;;;;;;;;;;;;;;;;5082787;28;19939;-60
2022/12/02 14:32:28;;;;;;;;;;;;;;;;;;5084128;28;20405;-60
2022/12/02 14:34:53;;;;;;;;;;;;;;;;;;5087829;28;19932;-59
2022/12/02 14:37:18;;;;;;;;;;;;;;;;;;5087610;28;19986;-61
2022/12/02 14:39:43;;;;;;;;;;;;;;;;;;5078689;28;20276;-63
2022/12/02 14:42:09;;;;;;;;;;;;;;;;;;5088057;28;20290;-61
2022/12/02 14:44:34;;;;;;;;;;;;;;;;;;5085463;28;19932;-60
2022/12/02 14:47:00;;;;;;;;;;;;;;;;;;5087003;28;19925;-60
2022/12/02 14:49:25;;;;;;;;;;;;;;;;;;5089207;28;19928;-61
2022/12/02 14:51:50;;;;;;;;;;;;;;;;;;5081714;28;19928;-60
2022/12/02 14:54:15;;;;;;;;;;;;;;;;;;5085218;28;20307;-57
2022/12/02 14:56:41;;;;;;;;;;;;;;;;;;5090688;28;19928;-60
2022/12/02 14:59:06;;;;;;;;;;;;;;;;;;5076689;28;19932;-59
2022/12/02 15:01:32;;;;;;;;;;;;;;;;;;5086706;28;19932;-59
2022/12/02 15:03:57;;;;;;;;;;;;;;;;;;5085181;28;20440;-59
2022/12/02 15:06:22;;;;;;;;;;;;;;;;;;5083195;28;20423;-61
2022/12/02 15:08:48;;;;;;;;;;;;;;;;;;5086342;28;19931;-58
2022/12/02 15:11:13;;;;;;;;;;;;;;;;;;5079301;28;20330;-59
2022/12/02 15:13:38;;;;;;;;;;;;;;;;;;5083642;28;19933;-58
2022/12/02 15:16:05;;;;;;;;;;;;;;;;;;5068311;28;19981;-59
2022/12/02 15:18:31;;;;;;;;;;;;;;;;;;5091553;28;20016;-60
2022/12/02 15:20:56;;;;;;;;;;;;;;;;;;5087971;28;20439;-60
2022/12/02 15:23:21;;;;;;;;;;;;;;;;;;5083510;28;19965;-60
2022/12/02 15:25:47;;;;;;;;;;;;;;;;;;5084284;28;19928;-60
2022/12/02 15:28:12;;;;;;;;;;;;;;;;;;5087536;28;20395;-59
2022/12/02 15:30:37;;;;;;;;;;;;;;;;;;5085793;28;20370;-61
2022/12/02 15:33:02;;;;;;;;;;;;;;;;;;5081316;28;19931;-61
2022/12/02 15:35:28;;;;;;;;;;;;;;;;;;5087379;28;19928;-61
2022/12/02 15:37:53;;;;;;;;;;;;;;;;;;5085122;28;19931;-61
2022/12/02 15:40:18;;;;;;;;;;;;;;;;;;5088369;28;19924;-61
2022/12/02 15:42:43;;;;;;;;;;;;;;;;;;5089784;28;19920;-62
2022/12/02 15:45:09;;;;;;;;;;;;;;;;;;5086256;28;19924;-62
2022/12/02 15:47:34;;;;;;;;;;;;;;;;;;5089550;28;19997;-61
2022/12/02 15:49:59;;;;;;;;;;;;;;;;;;5086923;28;19985;-61
2022/12/02 15:52:24;;;;;;;;;;;;;;;;;;5086256;28;19935;-60
2022/12/02 15:54:50;;;;;;;;;;;;;;;;;;5095221;28;19930;-61
2022/12/02 15:57:15;;;;;;;;;;;;;;;;;;5085822;28;20350;-61
2022/12/02 15:59:41;;;;;;;;;;;;;;;;;;5090042;28;19924;-61
2022/12/02 16:02:06;;;;;;;;;;;;;;;;;;5088690;28;19931;-61
2022/12/02 16:04:34;;;;;;;;;;;;;;;;;;5094070;28;19931;-62
2022/12/02 16:06:59;;;;;;;;;;;;;;;;;;5092430;28;20335;-60
2022/12/02 16:09:24;;;;;;;;;;;;;;;;;;5087311;28;20511;-61
2022/12/02 16:11:50;;;;;;;;;;;;;;;;;;5084996;28;20023;-61
2022/12/02 16:14:15;;;;;;;;;;;;;;;;;;5094416;28;19969;-60
2022/12/02 16:16:40;;;;;;;;;;;;;;;;;;5091503;28;20372;-61
2022/12/02 16:19:05;;;;;;;;;;;;;;;;;;5096212;28;19931;-61
2022/12/02 16:21:31;;;;;;;;;;;;;;;;;;5084510;28;19947;-60
2022/12/02 16:23:56;;;;;;;;;;;;;;;;;;5085651;28;19978;-61
2022/12/02 16:26:21;;;;;;;;;;;;;;;;;;5081399;28;19928;-60
2022/12/02 16:28:47;;;;;;;;;;;;;;;;;;5087457;28;19931;-61
2022/12/02 16:31:12;;;;;;;;;;;;;;;;;;5082419;28;20849;-61
2022/12/02 16:33:37;;;;;;;;;;;;;;;;;;5091359;28;19993;-60
2022/12/02 16:36:03;;;;;;;;;;;;;;;;;;5088607;28;19931;-61
2022/12/02 16:38:28;;;;;;;;;;;;;;;;;;5091720;28;20378;-61
2022/12/02 16:40:53;;;;;;;;;;;;;;;;;;5093822;28;19924;-61
2022/12/02 16:43:18;;;;;;;;;;;;;;;;;;5089924;28;19928;-60
2022/12/02 16:45:44;;;;;;;;;;;;;;;;;;5087712;28;20454;-62
2022/12/02 16:48:09;;;;;;;;;;;;;;;;;;5085749;28;19928;-61
2022/12/02 16:50:34;;;;;;;;;;;;;;;;;;5064910;28;20368;-60